Time;durP1;ratioP1;P1;durP2;ratioP2;P2;SDS_P1;SDS_P2;PMS_P1;PMS_P2;Temp;Humidity;BMP_temperature;BMP_pressure;BME280_temperature;BME280_humidity;BME280_pressure;Samples;Min_cycle;Max_cycle;Signal;HPM_P1;HPM_P2
2022/05/04 00:00:32;;;;;;;9.55;3.03;;;7.20;99.90;;;;;;5003320;28;20053;-80
2022/05/04 00:02:57;;;;;;;10.02;3.20;;;8.70;99.90;;;;;;5020743;28;20076;-80
2022/05/04 00:05:23;;;;;;;10.20;2.70;;;7.90;99.90;;;;;;4997932;28;20045;-80
2022/05/04 00:07:49;;;;;;;10.55;2.70;;;7.90;99.90;;;;;;5001578;28;20041;-80
2022/05/04 00:10:14;;;;;;;11.38;2.83;;;7.90;99.90;;;;;;5030098;28;20033;-86
2022/05/04 00:12:41;;;;;;;13.10;3.40;;;7.90;99.90;;;;;;5003091;28;20041;-86
2022/05/04 00:15:07;;;;;;;10.77;2.65;;;7.90;99.90;;;;;;5002702;28;20049;-86
2022/05/04 00:17:33;;;;;;;8.35;2.70;;;8.00;99.90;;;;;;5013975;28;20407;-87
2022/05/04 00:19:59;;;;;;;11.00;2.72;;;8.00;99.90;;;;;;5016551;28;20091;-86
2022/05/04 00:22:26;;;;;;;12.98;2.80;;;8.20;99.90;;;;;;5020846;28;20049;-87
2022/05/04 00:24:52;;;;;;;10.50;2.90;;;7.90;99.90;;;;;;4999593;28;20051;-86
2022/05/04 00:27:18;;;;;;;13.10;3.38;;;7.90;99.90;;;;;;5031374;28;20063;-91
2022/05/04 00:29:46;;;;;;;10.05;2.45;;;7.80;99.90;;;;;;5015830;28;20033;-91
2022/05/04 00:32:13;;;;;;;9.25;3.00;;;8.60;99.90;;;;;;5036029;28;20030;-91
2022/05/04 00:34:39;;;;;;;8.98;2.85;;;7.80;99.90;;;;;;5017689;28;20037;-91
2022/05/04 00:37:06;;;;;;;8.52;2.60;;;7.80;99.90;;;;;;5031568;28;20048;-91
2022/05/04 00:39:31;;;;;;;10.20;3.28;;;7.60;99.90;;;;;;5047218;28;20499;-91
2022/05/04 00:42:15;;;;;;;10.90;2.78;;;7.70;99.90;;;;;;5033794;28;20075;-86
2022/05/04 00:44:42;;;;;;;9.90;2.53;;;7.70;99.90;;;;;;5017196;28;20045;-87
2022/05/04 00:47:08;;;;;;;11.85;2.90;;;7.80;99.90;;;;;;5021088;28;20128;-86
2022/05/04 00:49:35;;;;;;;9.00;2.70;;;7.70;99.90;;;;;;5001832;28;20099;-86
2022/05/04 00:52:03;;;;;;;8.43;3.00;;;7.80;99.90;;;;;;5029560;28;20048;-87
2022/05/04 00:54:30;;;;;;;10.20;2.60;;;7.80;99.90;;;;;;5037552;28;20087;-87
2022/05/04 00:56:56;;;;;;;7.97;2.60;;;7.70;99.90;;;;;;5017100;28;20040;-86
2022/05/04 00:59:22;;;;;;;9.50;2.80;;;7.70;99.90;;;;;;5033290;28;20095;-79
2022/05/04 01:01:48;;;;;;;10.25;2.88;;;7.70;99.90;;;;;;5016679;28;20037;-79
2022/05/04 01:04:15;;;;;;;9.65;2.40;;;7.70;99.90;;;;;;5032949;28;20044;-79
2022/05/04 01:06:40;;;;;;;11.05;2.72;;;7.70;99.90;;;;;;5000812;28;20888;-79
2022/05/04 01:09:06;;;;;;;8.25;2.70;;;7.70;99.90;;;;;;5000943;28;20430;-79
2022/05/04 01:11:32;;;;;;;15.60;3.15;;;7.60;99.90;;;;;;5004956;28;20829;-78
2022/05/04 01:13:59;;;;;;;10.77;2.67;;;7.70;99.90;;;;;;5002373;28;20037;-79
2022/05/04 01:16:26;;;;;;;9.85;2.90;;;7.60;99.90;;;;;;5013136;28;20170;-80
2022/05/04 01:18:52;;;;;;;12.48;3.00;;;8.70;99.90;;;;;;5013526;28;20160;-80
2022/05/04 01:21:17;;;;;;;7.72;2.58;;;7.70;99.90;;;;;;5015459;28;20092;-80
2022/05/04 01:23:45;;;;;;;9.00;2.80;;;7.80;99.90;;;;;;4997186;28;20084;-80
2022/05/04 01:26:10;;;;;;;5.88;2.15;;;8.00;99.90;;;;;;5013732;28;20099;-80
2022/05/04 01:28:36;;;;;;;9.80;2.53;;;7.70;99.90;;;;;;5016439;28;20049;-80
2022/05/04 01:31:01;;;;;;;10.07;2.50;;;7.70;99.90;;;;;;4983585;28;20045;-80
2022/05/04 01:33:27;;;;;;;10.00;2.90;;;7.70;99.90;;;;;;5002939;28;20376;-87
2022/05/04 01:35:53;;;;;;;8.73;2.60;;;7.70;99.90;;;;;;5007044;28;20056;-86
2022/05/04 01:38:18;;;;;;;12.90;2.75;;;7.80;99.90;;;;;;5015403;28;20037;-87
2022/05/04 01:40:45;;;;;;;13.55;2.75;;;7.60;99.90;;;;;;5001848;28;20675;-87
2022/05/04 01:43:11;;;;;;;9.77;2.90;;;7.60;99.90;;;;;;5017761;28;20128;-87
2022/05/04 01:45:36;;;;;;;10.18;2.92;;;7.60;99.90;;;;;;5016125;28;20125;-86
2022/05/04 01:48:02;;;;;;;11.25;2.90;;;7.60;99.90;;;;;;5013669;28;20163;-87
2022/05/04 01:50:27;;;;;;;8.25;2.50;;;7.50;99.90;;;;;;5029515;28;20132;-87
2022/05/04 01:52:53;;;;;;;7.75;2.35;;;7.50;99.90;;;;;;5005940;28;20041;-87
2022/05/04 01:55:19;;;;;;;8.23;2.80;;;7.60;99.90;;;;;;5015473;28;20046;-86
2022/05/04 01:57:45;;;;;;;12.55;2.80;;;7.50;99.90;;;;;;4999448;28;20128;-86
2022/05/04 02:00:11;;;;;;;11.73;2.80;;;7.50;99.90;;;;;;5019372;28;20037;-86
2022/05/04 02:02:38;;;;;;;10.63;3.10;;;7.50;99.90;;;;;;5015688;28;20072;-86
2022/05/04 02:05:04;;;;;;;10.40;2.60;;;7.50;99.90;;;;;;5022142;28;20045;-81
2022/05/04 02:07:31;;;;;;;11.90;2.50;;;7.50;99.90;;;;;;5019366;28;20044;-80
2022/05/04 02:09:57;;;;;;;9.88;2.70;;;7.50;99.90;;;;;;5013281;28;20076;-80
2022/05/04 02:12:23;;;;;;;13.32;2.70;;;7.40;99.90;;;;;;5020592;28;20273;-80
2022/05/04 02:14:49;;;;;;;10.70;3.05;;;7.50;99.90;;;;;;5021142;28;20051;-80
2022/05/04 02:17:15;;;;;;;9.82;2.90;;;7.60;99.90;;;;;;5031477;28;20072;-80
2022/05/04 02:19:41;;;;;;;12.15;2.90;;;7.50;99.90;;;;;;4987876;28;20049;-80
2022/05/04 02:22:06;;;;;;;8.45;2.72;;;8.40;99.90;;;;;;4999107;28;20049;-80
2022/05/04 02:24:32;;;;;;;9.82;2.83;;;7.60;99.90;;;;;;5019865;28;20037;-80
2022/05/04 02:26:58;;;;;;;10.52;2.80;;;7.50;99.90;;;;;;5018290;28;20628;-80
2022/05/04 02:29:23;;;;;;;8.15;2.80;;;7.50;99.90;;;;;;5003661;28;20593;-80
2022/05/04 02:31:49;;;;;;;9.70;2.92;;;7.50;99.90;;;;;;5002996;28;20095;-80
2022/05/04 02:34:15;;;;;;;11.40;2.80;;;7.50;99.90;;;;;;5032230;28;20045;-80
2022/05/04 02:39:25;;;;;;;9.07;3.22;;;7.50;99.90;;;;;;5024004;28;20041;-91
2022/05/04 02:41:52;;;;;;;8.05;2.67;;;7.50;99.90;;;;;;5033137;28;20187;-91
2022/05/04 02:44:18;;;;;;;7.40;2.75;;;7.50;99.90;;;;;;5000724;28;20490;-91
2022/05/04 02:46:44;;;;;;;10.35;2.90;;;7.50;99.90;;;;;;5036531;28;20036;-91
2022/05/04 02:49:09;;;;;;;12.73;3.17;;;7.50;99.90;;;;;;5033483;28;20396;-91
2022/05/04 02:51:35;;;;;;;10.18;3.00;;;7.40;99.90;;;;;;5034159;28;20045;-91
2022/05/04 02:54:01;;;;;;;11.82;3.10;;;7.70;99.90;;;;;;5029882;28;20048;-91
2022/05/04 02:56:26;;;;;;;10.98;3.15;;;7.50;99.90;;;;;;5007982;28;20052;-86
2022/05/04 02:58:53;;;;;;;9.75;2.90;;;7.50;99.90;;;;;;5031019;28;20049;-86
2022/05/04 03:04:08;;;;;;;9.13;2.80;;;7.50;99.90;;;;;;5032377;28;20054;-86
2022/05/04 03:06:35;;;;;;;11.68;2.92;;;7.50;99.90;;;;;;5023471;28;20049;-86
2022/05/04 03:09:01;;;;;;;11.13;3.25;;;7.60;99.90;;;;;;5063640;28;20049;-86
2022/05/04 03:14:12;;;;;;;10.73;2.78;;;7.50;99.90;;;;;;5032721;28;20049;-81
2022/05/04 03:16:39;;;;;;;9.40;2.95;;;7.70;99.90;;;;;;5030428;28;20051;-81
2022/05/04 03:19:06;;;;;;;12.30;3.25;;;7.50;99.90;;;;;;4999251;28;20143;-81
2022/05/04 03:21:33;;;;;;;11.05;2.42;;;8.50;99.90;;;;;;5031997;28;20068;-81
2022/05/04 03:23:59;;;;;;;10.45;2.80;;;7.50;99.90;;;;;;5014295;28;20215;-81
2022/05/04 03:26:24;;;;;;;13.27;3.10;;;7.60;99.90;;;;;;5046547;28;20161;-81
2022/05/04 03:28:51;;;;;;;8.80;3.03;;;7.50;99.90;;;;;;4997744;28;20398;-81
2022/05/04 03:31:17;;;;;;;14.25;3.33;;;7.50;99.90;;;;;;5030488;28;20038;-81
2022/05/04 03:33:43;;;;;;;11.25;2.80;;;7.50;99.90;;;;;;5059717;22;20055;-81
2022/05/04 03:36:08;;;;;;;7.70;3.00;;;7.50;99.90;;;;;;5031084;28;20135;-81
2022/05/04 03:38:34;;;;;;;9.55;2.95;;;7.50;99.90;;;;;;5070958;28;20039;-81
2022/05/04 03:41:00;;;;;;;13.93;2.78;;;7.50;99.90;;;;;;5041803;28;20063;-81
2022/05/04 03:43:26;;;;;;;11.80;2.95;;;7.50;99.90;;;;;;5072263;28;20093;-81
2022/05/04 03:45:52;;;;;;;9.88;2.80;;;7.50;99.90;;;;;;5071984;28;20161;-81
2022/05/04 03:48:18;;;;;;;10.95;2.97;;;7.50;99.90;;;;;;5052130;28;20025;-81
2022/05/04 03:50:45;;;;;;;8.75;2.78;;;7.50;99.90;;;;;;5026567;28;20102;-81
2022/05/04 03:53:11;;;;;;;11.68;3.00;;;7.50;99.90;;;;;;5078269;28;20513;-81
2022/05/04 03:55:37;;;;;;;9.73;3.20;;;7.50;99.90;;;;;;5076547;28;20119;-81
2022/05/04 03:58:02;;;;;;;9.40;3.08;;;7.50;99.90;;;;;;5055734;28;20115;-81
2022/05/04 04:00:28;;;;;;;11.40;3.10;;;7.40;99.90;;;;;;5036152;28;20044;-81
2022/05/04 04:02:54;;;;;;;10.45;2.90;;;7.50;99.90;;;;;;5055781;28;20043;-81
2022/05/04 04:05:20;;;;;;;9.23;2.90;;;8.10;99.90;;;;;;5071474;28;20040;-82
2022/05/04 04:07:45;;;;;;;15.30;3.25;;;7.70;99.90;;;;;;5065214;28;20086;-82
2022/05/04 04:10:11;;;;;;;12.50;3.05;;;7.50;99.90;;;;;;5052045;28;20044;-81
2022/05/04 04:12:37;;;;;;;10.73;3.20;;;7.50;99.90;;;;;;5056205;28;20052;-81
2022/05/04 04:15:03;;;;;;;13.02;3.00;;;7.90;99.90;;;;;;5056134;28;20552;-81
2022/05/04 04:17:29;;;;;;;9.65;3.17;;;7.50;99.90;;;;;;5056138;28;20384;-81
2022/05/04 04:22:39;;;;;;;11.57;2.95;;;7.50;99.90;;;;;;5072778;28;20044;-78
2022/05/04 04:25:05;;;;;;;11.32;3.08;;;7.50;99.90;;;;;;5056097;28;20037;-78
2022/05/04 04:27:32;;;;;;;10.05;3.08;;;7.50;99.90;;;;;;5071712;28;20041;-78
2022/05/04 04:29:58;;;;;;;11.35;3.38;;;8.40;99.90;;;;;;5036313;28;20080;-78
2022/05/04 04:32:24;;;;;;;9.77;3.20;;;7.50;99.90;;;;;;5072423;28;20125;-78
2022/05/04 04:34:49;;;;;;;13.10;3.35;;;7.50;99.90;;;;;;5072398;28;20071;-78
2022/05/04 04:37:15;;;;;;;8.02;3.10;;;7.50;99.90;;;;;;5071844;28;20044;-78
2022/05/04 04:39:41;;;;;;;9.57;2.80;;;7.50;99.90;;;;;;5056106;28;20040;-78
2022/05/04 04:42:07;;;;;;;7.50;2.70;;;7.60;99.90;;;;;;5072459;28;20513;-78
2022/05/04 04:44:33;;;;;;;9.73;2.90;;;7.60;99.90;;;;;;5072431;28;20116;-78
2022/05/04 04:46:59;;;;;;;10.68;3.22;;;7.60;99.90;;;;;;5071970;28;20542;-78
2022/05/04 04:49:25;;;;;;;8.18;2.75;;;7.60;99.90;;;;;;5041954;28;20036;-78
2022/05/04 04:51:51;;;;;;;11.60;3.17;;;7.60;99.90;;;;;;5072196;28;20560;-78
2022/05/04 04:54:17;;;;;;;9.30;3.15;;;7.60;99.90;;;;;;5036420;28;20040;-78
2022/05/04 04:56:43;;;;;;;9.55;2.95;;;8.10;99.90;;;;;;5070939;28;20048;-78
2022/05/04 04:59:09;;;;;;;10.82;3.22;;;7.80;99.90;;;;;;5071987;28;20040;-78
2022/05/04 05:01:34;;;;;;;10.85;2.90;;;7.80;99.90;;;;;;5070178;28;20051;-78
2022/05/04 05:04:00;;;;;;;9.40;3.10;;;7.80;99.90;;;;;;5036498;28;20500;-78
2022/05/04 05:06:26;;;;;;;8.10;2.85;;;7.80;99.90;;;;;;5071990;28;20045;-78
2022/05/04 05:08:52;;;;;;;11.48;3.08;;;7.90;99.90;;;;;;5053526;28;20040;-82
2022/05/04 05:11:17;;;;;;;7.18;2.70;;;8.40;99.90;;;;;;5068879;28;20075;-83
2022/05/04 05:16:27;;;;;;;11.48;3.13;;;7.90;99.90;;;;;;5072510;28;20390;-83
2022/05/04 05:18:53;;;;;;;12.13;2.90;;;7.90;99.90;;;;;;5071679;28;20044;-83
2022/05/04 05:21:19;;;;;;;8.30;2.78;;;8.00;99.90;;;;;;5068185;28;20037;-83
2022/05/04 05:23:45;;;;;;;10.68;3.13;;;8.00;99.90;;;;;;5059358;28;20033;-82
2022/05/04 05:26:12;;;;;;;10.90;3.28;;;8.30;99.90;;;;;;5067656;28;20051;-82
2022/05/04 05:28:37;;;;;;;8.38;2.80;;;8.10;99.90;;;;;;5053698;28;20036;-82
2022/05/04 05:31:03;;;;;;;8.25;2.60;;;8.20;99.90;;;;;;5055369;28;20538;-83
2022/05/04 05:33:29;;;;;;;10.00;2.90;;;8.20;99.90;;;;;;5048351;28;20053;-82
2022/05/04 05:35:54;;;;;;;9.30;2.90;;;8.30;99.90;;;;;;5053750;28;20055;-82
2022/05/04 05:38:21;;;;;;;8.93;2.53;;;;;;;;;;5071891;28;20076;-82
2022/05/04 05:40:47;;;;;;;12.02;3.00;;;8.30;99.90;;;;;;5071840;28;20040;-82
2022/05/04 05:43:13;;;;;;;9.10;2.70;;;8.30;99.90;;;;;;5069367;28;20082;-78
2022/05/04 05:45:38;;;;;;;7.57;2.70;;;8.40;99.90;;;;;;5071248;28;20040;-78
2022/05/04 05:48:04;;;;;;;8.50;2.50;;;8.60;99.90;;;;;;5053956;28;20132;-78
2022/05/04 05:50:33;;;;;;;9.82;2.45;;;8.50;99.90;;;;;;5074859;28;20044;-78
2022/05/04 05:52:59;;;;;;;9.00;2.40;;;8.50;99.90;;;;;;5071884;28;20128;-78
2022/05/04 05:55:25;;;;;;;11.30;2.70;;;8.60;99.90;;;;;;5072313;28;20123;-78
2022/05/04 05:57:51;;;;;;;10.50;2.72;;;8.60;99.90;;;;;;5075628;28;20036;-78
2022/05/04 06:00:17;;;;;;;9.25;2.60;;;8.70;99.90;;;;;;5071849;28;20033;-77
2022/05/04 06:02:44;;;;;;;8.95;2.58;;;8.70;99.90;;;;;;5057528;28;20039;-78
2022/05/04 06:05:10;;;;;;;9.60;2.65;;;8.80;99.90;;;;;;5055421;28;20045;-78
2022/05/04 06:07:37;;;;;;;9.50;2.60;;;8.90;99.90;;;;;;5073319;28;20036;-77
2022/05/04 06:10:03;;;;;;;12.23;2.55;;;8.90;99.90;;;;;;5070118;28;20097;-78
2022/05/04 06:12:29;;;;;;;9.20;2.78;;;8.90;99.90;;;;;;5048259;28;20028;-78
2022/05/04 06:14:55;;;;;;;8.80;2.30;;;9.00;99.90;;;;;;5060033;28;20052;-78
2022/05/04 06:17:21;;;;;;;8.77;2.60;;;9.00;99.90;;;;;;5056337;28;20092;-78
2022/05/04 06:19:47;;;;;;;7.28;2.33;;;9.10;99.90;;;;;;5039066;28;20044;-78
2022/05/04 06:22:13;;;;;;;13.98;3.00;;;9.20;99.90;;;;;;5062284;28;20044;-78
2022/05/04 06:24:39;;;;;;;12.98;2.55;;;9.20;99.90;;;;;;5041713;28;20086;-79
2022/05/04 06:27:05;;;;;;;7.60;2.20;;;9.30;99.90;;;;;;5026111;28;20119;-78
2022/05/04 06:35:05;;;;;;;7.28;2.25;;;9.50;99.90;;;;;;5044662;28;20063;-78
2022/05/04 06:37:31;;;;;;;7.47;2.40;;;9.50;99.90;;;;;;5054594;28;20048;-78
2022/05/04 06:39:57;;;;;;;11.60;2.55;;;9.70;99.90;;;;;;5058152;28;20044;-78
2022/05/04 06:42:23;;;;;;;8.63;2.30;;;9.80;99.90;;;;;;5040049;28;20048;-78
2022/05/04 06:44:49;;;;;;;7.90;2.20;;;9.90;99.90;;;;;;5039357;28;20405;-78
2022/05/04 06:47:14;;;;;;;8.75;2.30;;;10.00;99.90;;;;;;5041462;28;20041;-78
2022/05/04 06:49:40;;;;;;;11.57;2.63;;;10.10;99.90;;;;;;5055691;28;20470;-83
2022/05/04 06:52:06;;;;;;;7.45;2.30;;;10.20;99.90;;;;;;5027820;28;20033;-83
2022/05/04 06:54:32;;;;;;;8.82;2.38;;;10.30;99.70;;;;;;5039832;28;20385;-83
2022/05/04 06:56:58;;;;;;;11.15;2.88;;;10.40;99.90;;;;;;5057026;28;20041;-83
2022/05/04 06:59:24;;;;;;;13.18;2.58;;;10.50;99.90;;;;;;5055243;28;20052;-83
2022/05/04 07:01:49;;;;;;;9.13;2.50;;;10.60;99.90;;;;;;5039356;28;20044;-83
2022/05/04 07:04:16;;;;;;;9.93;2.30;;;11.20;99.90;;;;;;5058022;28;20028;-83
2022/05/04 07:06:42;;;;;;;7.07;2.25;;;11.10;99.90;;;;;;5056664;28;20091;-79
2022/05/04 07:09:07;;;;;;;8.85;2.42;;;11.20;99.90;;;;;;5056166;28;20609;-78
2022/05/04 07:11:33;;;;;;;8.55;2.50;;;11.40;99.90;;;;;;5061407;28;20825;-77
2022/05/04 07:13:59;;;;;;;9.38;2.20;;;11.50;99.90;;;;;;5039348;28;20076;-77
2022/05/04 07:16:24;;;;;;;9.90;2.45;;;11.60;96.90;;;;;;5056283;28;20444;-77
2022/05/04 07:18:50;;;;;;;8.43;2.33;;;11.50;99.00;;;;;;5042588;28;20040;-77
2022/05/04 07:21:16;;;;;;;10.30;2.40;;;11.70;99.10;;;;;;5054644;28;20063;-77
2022/05/04 07:23:41;;;;;;;8.80;2.28;;;11.80;99.10;;;;;;5041425;28;20036;-77
2022/05/04 07:26:07;;;;;;;8.10;2.55;;;11.90;97.80;;;;;;5041799;28;20044;-77
2022/05/04 07:28:33;;;;;;;8.40;2.08;;;12.00;98.50;;;;;;5042213;28;20047;-77
2022/05/04 07:30:58;;;;;;;8.90;2.47;;;12.20;98.40;;;;;;5057743;28;21179;-77
2022/05/04 07:33:24;;;;;;;8.00;2.20;;;12.20;98.30;;;;;;5057297;28;20044;-77
2022/05/04 07:35:50;;;;;;;5.32;2.05;;;12.20;97.80;;;;;;5055626;28;20064;-77
2022/05/04 07:38:16;;;;;;;6.47;2.33;;;12.20;97.70;;;;;;5055308;28;20467;-78
2022/05/04 07:43:26;;;;;;;8.15;2.28;;;12.10;97.80;;;;;;5042209;28;20043;-82
2022/05/04 07:45:51;;;;;;;7.15;2.22;;;12.20;97.90;;;;;;5041631;28;20048;-83
2022/05/04 07:48:17;;;;;;;8.38;2.47;;;;;;;;;;5054749;28;20137;-82
2022/05/04 07:50:43;;;;;;;8.30;2.15;;;12.30;95.80;;;;;;5056400;28;20445;-83
2022/05/04 07:53:09;;;;;;;7.60;2.15;;;12.30;96.60;;;;;;5063435;28;20781;-82
2022/05/04 07:55:36;;;;;;;7.53;2.10;;;12.50;97.10;;;;;;5055971;28;20547;-83
2022/05/04 07:58:02;;;;;;;10.63;2.25;;;12.60;96.70;;;;;;5060762;28;20120;-83
2022/05/04 08:05:56;;;;;;;6.00;2.10;;;13.10;95.80;;;;;;5059046;28;20051;-83
2022/05/04 08:08:22;;;;;;;6.60;2.33;;;13.10;95.90;;;;;;5073102;28;20036;-83
2022/05/04 08:10:48;;;;;;;7.35;2.38;;;13.30;96.00;;;;;;5072460;28;20040;-83
2022/05/04 08:13:13;;;;;;;7.57;2.50;;;13.60;95.70;;;;;;5061573;28;20123;-83
2022/05/04 08:15:39;;;;;;;7.00;2.03;;;13.80;95.20;;;;;;5073265;28;20044;-83
2022/05/04 08:18:05;;;;;;;8.52;2.58;;;14.00;94.40;;;;;;5059346;28;20482;-83
2022/05/04 08:20:31;;;;;;;8.68;2.00;;;14.10;94.40;;;;;;5073105;28;20489;-83
2022/05/04 08:22:57;;;;;;;9.05;2.53;;;14.10;93.50;;;;;;5056420;28;20118;-83
2022/05/04 08:25:24;;;;;;;6.75;2.42;;;14.30;93.90;;;;;;5072848;28;20032;-83
2022/05/04 08:27:50;;;;;;;9.52;2.70;;;14.30;93.30;;;;;;5056126;28;20148;-83
2022/05/04 08:30:16;;;;;;;8.07;2.30;;;14.30;92.80;;;;;;5073110;28;20111;-80
2022/05/04 08:32:45;;;;;;;9.32;2.80;;;14.30;90.00;;;;;;5072976;28;20234;-80
2022/05/04 08:35:12;;;;;;;9.25;2.50;;;14.20;90.20;;;;;;5072513;28;20040;-80
2022/05/04 08:37:38;;;;;;;9.98;2.28;;;13.90;90.90;;;;;;5072639;28;20048;-80
2022/05/04 08:40:04;;;;;;;6.53;2.20;;;13.90;91.50;;;;;;5058789;28;20046;-80
2022/05/04 08:42:30;;;;;;;12.43;2.60;;;13.90;92.00;;;;;;5072764;28;20159;-80
2022/05/04 08:44:57;;;;;;;6.63;2.50;;;13.50;90.30;;;;;;5072581;28;20495;-80
2022/05/04 08:47:28;;;;;;;9.65;2.40;;;13.20;90.90;;;;;;5055613;28;20068;-80
2022/05/04 08:49:54;;;;;;;6.75;2.40;;;13.40;91.30;;;;;;5055987;28;20078;-80
2022/05/04 08:52:21;;;;;;;6.57;2.40;;;13.50;92.20;;;;;;5072321;28;20080;-80
2022/05/04 08:54:49;;;;;;;8.80;2.20;;;13.40;91.80;;;;;;5055760;28;20040;-80
2022/05/04 08:57:15;;;;;;;8.18;2.47;;;13.30;91.80;;;;;;5072433;28;20458;-79
2022/05/04 08:59:43;;;;;;;9.18;2.67;;;13.50;91.30;;;;;;5072282;28;20076;-79
2022/05/04 09:02:10;;;;;;;6.10;2.10;;;13.80;92.10;;;;;;5072353;28;20048;-80
2022/05/04 09:04:39;;;;;;;12.40;2.80;;;14.20;92.50;;;;;;5058335;28;20040;-80
2022/05/04 09:07:20;;;;;;;6.72;2.33;;;14.30;92.00;;;;;;5072214;28;20127;-80
2022/05/04 09:09:46;;;;;;;7.80;2.53;;;14.40;91.20;;;;;;5072188;28;20044;-80
2022/05/04 09:12:15;;;;;;;8.75;2.70;;;14.50;90.20;;;;;;5044121;28;20087;-80
2022/05/04 09:14:42;;;;;;;7.90;2.28;;;14.80;90.70;;;;;;5071192;28;20124;-80
2022/05/04 09:17:14;;;;;;;7.97;2.25;;;14.90;89.90;;;;;;5072017;28;20119;-80
2022/05/04 09:20:45;;;;;;;9.50;2.58;;;15.20;87.10;;;;;;5054703;28;20501;-80
2022/05/04 09:22:37;;;;;;;6.57;2.40;;;15.40;87.10;;;;;;5070742;28;20123;-80
2022/05/04 09:25:11;;;;;;;11.48;2.33;;;15.60;87.30;;;;;;5071133;28;20542;-80
2022/05/04 09:27:39;;;;;;;9.15;2.60;;;15.70;86.00;;;;;;5054997;28;20043;-80
2022/05/04 09:30:05;;;;;;;7.70;2.38;;;15.40;82.00;;;;;;5071826;28;20033;-80
2022/05/04 09:32:31;;;;;;;8.43;2.40;;;16.00;85.80;;;;;;5072425;28;20058;-80
2022/05/04 09:34:57;;;;;;;7.15;2.42;;;16.40;85.10;;;;;;5071553;28;20044;-80
2022/05/04 09:45:55;;;;;;;9.02;2.55;;;16.10;78.40;;;;;;5057931;28;20079;-84
2022/05/04 09:48:32;;;;;;;7.18;2.30;;;15.20;80.60;;;;;;5054814;28;20051;-84
2022/05/04 09:51:17;;;;;;;7.63;2.47;;;15.60;82.40;;;;;;5062168;28;20037;-84
2022/05/04 09:53:42;;;;;;;9.25;2.70;;;15.80;83.90;;;;;;5069500;28;20036;-81
2022/05/04 09:56:09;;;;;;;7.18;2.33;;;19.30;75.00;;;;;;5058230;28;20555;-81
2022/05/04 09:58:35;;;;;;;8.95;2.53;;;20.70;66.80;;;;;;5071751;28;20109;-81
2022/05/04 10:01:02;;;;;;;7.30;2.70;;;20.70;67.00;;;;;;5071984;28;20390;-81
2022/05/04 10:03:28;;;;;;;7.43;2.60;;;21.10;69.10;;;;;;5071348;28;20043;-81
2022/05/04 10:05:55;;;;;;;8.07;2.70;;;23.10;67.70;;;;;;5068646;28;20041;-81
2022/05/04 10:08:22;;;;;;;6.68;2.50;;;22.20;62.70;;;;;;5060788;28;20040;-83
2022/05/04 10:10:48;;;;;;;5.97;2.10;;;24.10;64.40;;;;;;5054793;28;20079;-85
2022/05/04 10:13:19;;;;;;;7.05;2.80;;;25.10;60.40;;;;;;5042076;28;20040;-86
2022/05/04 10:15:46;;;;;;;7.28;2.35;;;24.10;56.20;;;;;;5071545;28;20040;-86
2022/05/04 10:18:24;;;;;;;6.88;2.50;;;24.80;58.10;;;;;;5021063;28;20037;-85
2022/05/04 10:21:10;;;;;;;10.18;2.40;;;24.40;52.40;;;;;;5065226;28;20044;-86
2022/05/04 10:24:00;;;;;;;7.80;2.58;;;23.10;55.80;;;;;;5059896;28;20115;-85
2022/05/04 10:26:33;;;;;;;6.30;2.58;;;22.20;57.10;;;;;;5071644;28;20048;-86
2022/05/04 10:31:53;;;;;;;7.25;2.58;;;23.10;56.60;;;;;;5070662;28;20037;-86
2022/05/04 10:34:20;;;;;;;7.65;2.28;;;23.60;53.70;;;;;;5072997;28;20064;-86
2022/05/04 10:36:46;;;;;;;5.97;2.50;;;23.70;52.50;;;;;;5058160;28;20084;-86
2022/05/04 10:39:21;;;;;;;5.60;2.60;;;22.50;51.60;;;;;;5058467;28;20437;-86
2022/05/04 10:41:46;;;;;;;8.15;2.50;;;24.00;51.90;;;;;;5058668;28;20048;-82
2022/05/04 10:44:12;;;;;;;5.50;2.45;;;24.30;52.10;;;;;;5058158;28;20041;-81
2022/05/04 10:46:40;;;;;;;6.97;2.72;;;21.80;51.50;;;;;;5073298;28;20121;-81
2022/05/04 10:49:11;;;;;;;7.60;2.95;;;23.50;53.40;;;;;;5046766;28;20040;-81
2022/05/04 10:51:42;;;;;;;7.97;2.83;;;24.70;53.10;;;;;;5056701;28;20032;-81
2022/05/04 10:54:08;;;;;;;8.30;2.80;;;23.80;50.30;;;;;;5062660;28;20041;-82
2022/05/04 10:56:42;;;;;;;8.05;2.33;;;24.00;51.50;;;;;;5057912;28;20098;-82
2022/05/04 10:59:08;;;;;;;8.02;2.60;;;25.20;49.40;;;;;;5054838;28;20517;-82
2022/05/04 11:01:36;;;;;;;7.88;2.50;;;25.20;49.90;;;;;;5063888;28;20050;-82
2022/05/04 11:04:11;;;;;;;9.40;2.60;;;25.20;49.10;;;;;;5074381;28;20043;-82
2022/05/04 11:06:49;;;;;;;5.93;2.42;;;24.10;47.90;;;;;;5057927;28;20044;-82
2022/05/04 11:09:42;;;;;;;8.07;2.80;;;23.70;50.50;;;;;;5074307;28;20076;-81
2022/05/04 11:12:12;;;;;;;7.15;2.38;;;25.00;49.70;;;;;;5063508;28;20040;-82
2022/05/04 11:14:38;;;;;;;7.88;2.83;;;24.50;51.20;;;;;;5072875;28;20547;-82
2022/05/04 11:17:12;;;;;;;7.05;2.58;;;24.00;50.40;;;;;;5064011;28;20045;-81
2022/05/04 11:19:43;;;;;;;6.63;2.40;;;23.10;50.20;;;;;;5072307;28;20106;-81
2022/05/04 11:22:09;;;;;;;6.68;2.63;;;23.70;51.80;;;;;;5074215;28;20434;-81
2022/05/04 11:24:35;;;;;;;9.00;3.10;;;25.10;51.80;;;;;;5057405;28;20552;-81
2022/05/04 11:27:01;;;;;;;7.88;2.42;;;25.50;50.50;;;;;;5057241;28;20079;-81
2022/05/04 11:29:28;;;;;;;7.22;2.58;;;26.40;51.10;;;;;;5057361;28;20048;-81
2022/05/04 11:32:01;;;;;;;9.38;3.13;;;26.40;50.10;;;;;;5073925;28;20039;-86
2022/05/04 11:34:32;;;;;;;8.23;2.55;;;26.90;48.80;;;;;;5043541;28;20371;-86
2022/05/04 11:37:03;;;;;;;5.65;2.33;;;26.80;46.30;;;;;;5043986;28;20546;-86
2022/05/04 11:39:30;;;;;;;7.32;2.70;;;26.40;48.60;;;;;;5051643;28;20040;-86
2022/05/04 11:41:57;;;;;;;8.10;2.70;;;26.30;48.40;;;;;;5073697;28;20568;-86
2022/05/04 11:44:25;;;;;;;6.80;2.83;;;25.60;48.90;;;;;;5073690;28;20402;-86
2022/05/04 11:46:53;;;;;;;9.77;2.70;;;25.70;49.70;;;;;;5072936;28;20047;-86
2022/05/04 11:49:20;;;;;;;7.28;2.75;;;25.90;49.50;;;;;;5074196;28;20136;-81
2022/05/04 11:51:46;;;;;;;5.57;2.50;;;25.40;49.00;;;;;;5073424;28;20115;-81
2022/05/04 11:54:12;;;;;;;9.50;2.85;;;25.00;49.60;;;;;;5072941;28;20032;-85
2022/05/04 11:56:38;;;;;;;7.35;2.35;;;25.20;50.30;;;;;;5056868;28;20448;-86
2022/05/04 11:59:07;;;;;;;6.22;2.65;;;25.60;49.80;;;;;;5056662;28;20502;-86
2022/05/04 12:01:34;;;;;;;7.30;2.72;;;25.90;49.70;;;;;;5057043;28;20133;-86
2022/05/04 12:04:01;;;;;;;6.43;3.03;;;26.10;49.10;;;;;;5073194;28;20558;-86
2022/05/04 12:06:27;;;;;;;7.38;2.70;;;25.30;49.00;;;;;;5073461;28;20063;-85
2022/05/04 12:08:54;;;;;;;7.72;2.80;;;24.40;49.70;;;;;;5059790;28;20041;-86
2022/05/04 12:11:20;;;;;;;9.70;2.90;;;24.80;50.40;;;;;;5056197;28;20048;-85
2022/05/04 12:13:47;;;;;;;7.85;3.00;;;25.10;50.40;;;;;;5056577;28;20044;-85
2022/05/04 12:16:13;;;;;;;7.53;3.15;;;25.10;47.90;;;;;;5073329;28;20055;-85
2022/05/04 12:18:39;;;;;;;8.25;3.20;;;23.70;48.60;;;;;;5073142;28;20453;-85
2022/05/04 12:21:10;;;;;;;8.50;3.10;;;23.40;51.10;;;;;;5071139;28;20032;-85
2022/05/04 12:23:39;;;;;;;9.73;3.17;;;24.30;51.40;;;;;;5058102;28;20525;-82
2022/05/04 12:26:06;;;;;;;7.20;3.05;;;24.60;51.60;;;;;;5037162;28;20124;-81
2022/05/04 12:28:32;;;;;;;6.80;2.90;;;24.30;51.70;;;;;;5056349;28;20398;-82
2022/05/04 12:33:44;;;;;;;9.18;3.30;;;23.90;54.70;;;;;;5059902;28;20506;-81
2022/05/04 12:36:12;;;;;;;8.85;3.25;;;23.40;52.40;;;;;;5055811;28;20049;-82
2022/05/04 12:38:46;;;;;;;10.57;3.33;;;22.50;53.60;;;;;;5072665;28;20055;-81
2022/05/04 12:41:13;;;;;;;7.63;2.97;;;20.90;53.50;;;;;;5073053;28;20394;-81
2022/05/04 12:43:39;;;;;;;10.23;3.67;;;21.10;56.10;;;;;;5055643;28;20048;-81
2022/05/04 12:46:09;;;;;;;9.65;3.15;;;20.20;55.40;;;;;;5036382;28;20037;-81
2022/05/04 12:48:39;;;;;;;9.68;3.58;;;20.40;56.20;;;;;;5070915;28;20032;-81
2022/05/04 12:51:04;;;;;;;8.80;3.75;;;20.00;57.60;;;;;;5072489;28;20040;-81
2022/05/04 12:53:30;;;;;;;8.80;3.60;;;19.50;56.60;;;;;;5072271;28;20047;-81
2022/05/04 12:58:40;;;;;;;8.35;3.83;;;19.30;59.00;;;;;;5058250;28;20040;-81
2022/05/04 13:01:07;;;;;;;7.55;3.42;;;19.50;59.40;;;;;;5072427;28;20047;-81
2022/05/04 13:03:33;;;;;;;9.65;3.33;;;19.80;59.40;;;;;;5054486;28;20032;-81
2022/05/04 13:05:59;;;;;;;11.25;3.58;;;19.90;58.70;;;;;;5068496;28;20457;-81
2022/05/04 13:08:26;;;;;;;8.82;3.35;;;19.50;58.60;;;;;;5061952;28;20040;-81
2022/05/04 13:10:52;;;;;;;6.18;3.55;;;19.20;61.00;;;;;;5054780;28;20044;-81
2022/05/04 13:13:19;;;;;;;8.80;3.60;;;19.40;60.20;;;;;;5055647;28;20394;-81
2022/05/04 13:15:47;;;;;;;10.35;3.95;;;19.60;60.40;;;;;;5072034;28;20529;-81
2022/05/04 13:18:14;;;;;;;8.57;4.20;;;19.80;59.50;;;;;;5072209;28;20402;-81
2022/05/04 13:20:40;;;;;;;11.38;4.20;;;20.00;60.00;;;;;;5072138;28;20051;-81
2022/05/04 13:23:07;;;;;;;12.15;3.85;;;19.40;58.70;;;;;;5050866;28;20045;-81
2022/05/04 13:25:33;;;;;;;10.70;3.97;;;19.20;58.40;;;;;;5062518;28;20047;-81
2022/05/04 13:27:59;;;;;;;11.82;4.20;;;18.30;60.90;;;;;;5040980;28;20083;-81
2022/05/04 13:30:26;;;;;;;10.68;3.70;;;17.90;62.10;;;;;;5072106;28;20064;-81
2022/05/04 13:32:51;;;;;;;7.22;4.15;;;18.20;61.40;;;;;;5071835;28;20044;-81